sensor_id;sensor_type;location;lat;lon;timestamp;temperature;humidity
81935;DHT22;71405;47.674;-2.050;2023-10-08T00:01:53;19.10;63.00
81935;DHT22;71405;47.674;-2.050;2023-10-08T00:04:21;19.00;63.10
81935;DHT22;71405;47.674;-2.050;2023-10-08T00:06:47;19.00;62.80
81935;DHT22;71405;47.674;-2.050;2023-10-08T00:09:13;19.00;62.80
81935;DHT22;71405;47.674;-2.050;2023-10-08T00:11:40;19.00;62.80
81935;DHT22;71405;47.674;-2.050;2023-10-08T00:14:06;19.00;62.80
81935;DHT22;71405;47.674;-2.050;2023-10-08T00:16:36;19.00;63.00
81935;DHT22;71405;47.674;-2.050;2023-10-08T00:19:06;19.00;62.80
81935;DHT22;71405;47.674;-2.050;2023-10-08T00:21:40;19.00;62.80
81935;DHT22;71405;47.674;-2.050;2023-10-08T00:24:10;19.00;62.90
81935;DHT22;71405;47.674;-2.050;2023-10-08T00:26:35;19.00;62.70
81935;DHT22;71405;47.674;-2.050;2023-10-08T00:29:06;19.00;62.80
81935;DHT22;71405;47.674;-2.050;2023-10-08T00:31:45;19.00;62.80
81935;DHT22;71405;47.674;-2.050;2023-10-08T00:34:14;19.00;62.90
81935;DHT22;71405;47.674;-2.050;2023-10-08T00:36:44;19.00;62.90
81935;DHT22;71405;47.674;-2.050;2023-10-08T00:39:11;19.00;62.80
81935;DHT22;71405;47.674;-2.050;2023-10-08T00:42:00;19.00;62.80
81935;DHT22;71405;47.674;-2.050;2023-10-08T00:44:30;19.00;63.10
81935;DHT22;71405;47.674;-2.050;2023-10-08T00:46:56;19.00;63.10
81935;DHT22;71405;47.674;-2.050;2023-10-08T00:49:27;19.00;63.00
81935;DHT22;71405;47.674;-2.050;2023-10-08T00:52:08;19.00;63.20
81935;DHT22;71405;47.674;-2.050;2023-10-08T00:54:38;19.00;63.30
81935;DHT22;71405;47.674;-2.050;2023-10-08T00:57:27;19.00;63.60
81935;DHT22;71405;47.674;-2.050;2023-10-08T00:59:54;18.90;63.00
81935;DHT22;71405;47.674;-2.050;2023-10-08T01:02:31;18.90;62.90
81935;DHT22;71405;47.674;-2.050;2023-10-08T01:05:15;18.90;62.70
81935;DHT22;71405;47.674;-2.050;2023-10-08T01:07:46;18.90;62.60
81935;DHT22;71405;47.674;-2.050;2023-10-08T01:10:14;18.90;62.50
81935;DHT22;71405;47.674;-2.050;2023-10-08T01:12:45;18.90;62.80
81935;DHT22;71405;47.674;-2.050;2023-10-08T01:15:21;18.90;62.50
81935;DHT22;71405;47.674;-2.050;2023-10-08T01:17:52;18.90;62.50
81935;DHT22;71405;47.674;-2.050;2023-10-08T01:20:25;18.90;63.20
81935;DHT22;71405;47.674;-2.050;2023-10-08T01:23:07;18.90;63.00
81935;DHT22;71405;47.674;-2.050;2023-10-08T01:25:39;18.90;62.80
81935;DHT22;71405;47.674;-2.050;2023-10-08T01:28:06;18.90;62.80
81935;DHT22;71405;47.674;-2.050;2023-10-08T01:30:40;18.90;62.90
81935;DHT22;71405;47.674;-2.050;2023-10-08T01:33:10;18.90;63.10
81935;DHT22;71405;47.674;-2.050;2023-10-08T01:35:40;18.90;62.90
81935;DHT22;71405;47.674;-2.050;2023-10-08T01:38:06;18.90;62.60
81935;DHT22;71405;47.674;-2.050;2023-10-08T01:40:33;18.90;62.50
81935;DHT22;71405;47.674;-2.050;2023-10-08T01:42:59;18.90;62.50
81935;DHT22;71405;47.674;-2.050;2023-10-08T01:45:31;18.90;62.50
81935;DHT22;71405;47.674;-2.050;2023-10-08T01:47:58;18.90;62.40
81935;DHT22;71405;47.674;-2.050;2023-10-08T01:50:23;18.90;62.30
81935;DHT22;71405;47.674;-2.050;2023-10-08T01:52:55;18.90;62.40
81935;DHT22;71405;47.674;-2.050;2023-10-08T01:55:21;18.90;62.30
81935;DHT22;71405;47.674;-2.050;2023-10-08T01:57:50;18.90;62.30
81935;DHT22;71405;47.674;-2.050;2023-10-08T02:00:19;18.90;62.30
81935;DHT22;71405;47.674;-2.050;2023-10-08T02:02:50;18.90;62.40
81935;DHT22;71405;47.674;-2.050;2023-10-08T02:05:16;18.90;62.50
81935;DHT22;71405;47.674;-2.050;2023-10-08T02:07:45;18.80;62.70
81935;DHT22;71405;47.674;-2.050;2023-10-08T02:10:11;18.90;62.80
81935;DHT22;71405;47.674;-2.050;2023-10-08T02:12:40;18.80;62.90
81935;DHT22;71405;47.674;-2.050;2023-10-08T02:15:09;18.80;62.50
81935;DHT22;71405;47.674;-2.050;2023-10-08T02:17:37;18.80;62.90
81935;DHT22;71405;47.674;-2.050;2023-10-08T02:20:04;18.80;62.90
81935;DHT22;71405;47.674;-2.050;2023-10-08T02:22:31;18.80;62.80
81935;DHT22;71405;47.674;-2.050;2023-10-08T02:24:59;18.80;63.00
81935;DHT22;71405;47.674;-2.050;2023-10-08T02:27:28;18.80;62.90
81935;DHT22;71405;47.674;-2.050;2023-10-08T02:29:53;18.80;62.80
81935;DHT22;71405;47.674;-2.050;2023-10-08T02:32:20;18.80;63.10
81935;DHT22;71405;47.674;-2.050;2023-10-08T02:34:48;18.80;62.70
81935;DHT22;71405;47.674;-2.050;2023-10-08T02:37:14;18.80;63.40
81935;DHT22;71405;47.674;-2.050;2023-10-08T02:39:40;18.80;62.80
81935;DHT22;71405;47.674;-2.050;2023-10-08T02:42:06;18.80;62.40
81935;DHT22;71405;47.674;-2.050;2023-10-08T02:44:36;18.80;62.50
81935;DHT22;71405;47.674;-2.050;2023-10-08T02:47:12;18.80;62.20
81935;DHT22;71405;47.674;-2.050;2023-10-08T02:49:38;18.80;62.40
81935;DHT22;71405;47.674;-2.050;2023-10-08T02:52:07;18.80;62.10
81935;DHT22;71405;47.674;-2.050;2023-10-08T02:54:34;18.80;62.20
81935;DHT22;71405;47.674;-2.050;2023-10-08T02:57:02;18.80;62.30
81935;DHT22;71405;47.674;-2.050;2023-10-08T02:59:36;18.80;62.60
81935;DHT22;71405;47.674;-2.050;2023-10-08T03:02:13;18.80;62.50
81935;DHT22;71405;47.674;-2.050;2023-10-08T03:04:49;18.70;62.60
81935;DHT22;71405;47.674;-2.050;2023-10-08T03:07:18;18.70;62.70
81935;DHT22;71405;47.674;-2.050;2023-10-08T03:09:50;18.70;62.60
81935;DHT22;71405;47.674;-2.050;2023-10-08T03:12:19;18.70;62.80
81935;DHT22;71405;47.674;-2.050;2023-10-08T03:14:46;18.70;62.20
81935;DHT22;71405;47.674;-2.050;2023-10-08T03:17:27;18.70;62.10
81935;DHT22;71405;47.674;-2.050;2023-10-08T03:19:54;18.70;62.10
81935;DHT22;71405;47.674;-2.050;2023-10-08T03:22:27;18.70;61.90
81935;DHT22;71405;47.674;-2.050;2023-10-08T03:24:59;18.70;61.90
81935;DHT22;71405;47.674;-2.050;2023-10-08T03:27:39;18.70;62.20
81935;DHT22;71405;47.674;-2.050;2023-10-08T03:30:08;18.70;62.00
81935;DHT22;71405;47.674;-2.050;2023-10-08T03:32:41;18.70;62.40
81935;DHT22;71405;47.674;-2.050;2023-10-08T03:35:09;18.70;61.90
81935;DHT22;71405;47.674;-2.050;2023-10-08T03:37:38;18.70;61.80
81935;DHT22;71405;47.674;-2.050;2023-10-08T03:40:11;18.70;62.10
81935;DHT22;71405;47.674;-2.050;2023-10-08T03:42:58;18.70;62.20
81935;DHT22;71405;47.674;-2.050;2023-10-08T03:45:24;18.70;62.10
81935;DHT22;71405;47.674;-2.050;2023-10-08T03:48:08;18.70;62.10
81935;DHT22;71405;47.674;-2.050;2023-10-08T03:50:40;18.70;62.30
81935;DHT22;71405;47.674;-2.050;2023-10-08T03:53:07;18.70;62.30
81935;DHT22;71405;47.674;-2.050;2023-10-08T03:55:38;18.70;62.20
81935;DHT22;71405;47.674;-2.050;2023-10-08T03:58:09;18.70;61.90
81935;DHT22;71405;47.674;-2.050;2023-10-08T04:00:55;18.70;62.30
81935;DHT22;71405;47.674;-2.050;2023-10-08T04:03:37;18.60;62.00
81935;DHT22;71405;47.674;-2.050;2023-10-08T04:06:21;18.60;61.90
81935;DHT22;71405;47.674;-2.050;2023-10-08T04:09:05;18.60;62.20
81935;DHT22;71405;47.674;-2.050;2023-10-08T04:11:34;18.60;62.10
81935;DHT22;71405;47.674;-2.050;2023-10-08T04:14:15;18.60;62.20
81935;DHT22;71405;47.674;-2.050;2023-10-08T04:16:45;18.60;61.90
81935;DHT22;71405;47.674;-2.050;2023-10-08T04:19:11;18.60;61.80
81935;DHT22;71405;47.674;-2.050;2023-10-08T04:21:37;18.60;61.70
81935;DHT22;71405;47.674;-2.050;2023-10-08T04:24:05;18.60;61.60
81935;DHT22;71405;47.674;-2.050;2023-10-08T04:26:32;18.60;62.10
81935;DHT22;71405;47.674;-2.050;2023-10-08T04:29:01;18.60;61.90
81935;DHT22;71405;47.674;-2.050;2023-10-08T04:31:31;18.60;61.80
81935;DHT22;71405;47.674;-2.050;2023-10-08T04:34:04;18.60;61.80
81935;DHT22;71405;47.674;-2.050;2023-10-08T04:36:46;18.60;62.10
81935;DHT22;71405;47.674;-2.050;2023-10-08T04:39:13;18.60;61.90
81935;DHT22;71405;47.674;-2.050;2023-10-08T04:41:43;18.60;62.20
81935;DHT22;71405;47.674;-2.050;2023-10-08T04:44:09;18.60;62.00
81935;DHT22;71405;47.674;-2.050;2023-10-08T04:46:44;18.60;61.70
81935;DHT22;71405;47.674;-2.050;2023-10-08T04:49:17;18.60;61.90
81935;DHT22;71405;47.674;-2.050;2023-10-08T04:51:53;18.60;61.80
81935;DHT22;71405;47.674;-2.050;2023-10-08T04:54:23;18.60;61.80
81935;DHT22;71405;47.674;-2.050;2023-10-08T04:56:49;18.60;62.00
81935;DHT22;71405;47.674;-2.050;2023-10-08T04:59:15;18.50;62.20
81935;DHT22;71405;47.674;-2.050;2023-10-08T05:01:46;18.50;61.70
81935;DHT22;71405;47.674;-2.050;2023-10-08T05:04:31;18.50;61.70
81935;DHT22;71405;47.674;-2.050;2023-10-08T05:07:12;18.50;61.50
81935;DHT22;71405;47.674;-2.050;2023-10-08T05:09:52;18.50;61.60
81935;DHT22;71405;47.674;-2.050;2023-10-08T05:12:35;18.50;61.70
81935;DHT22;71405;47.674;-2.050;2023-10-08T05:15:11;18.50;61.40
81935;DHT22;71405;47.674;-2.050;2023-10-08T05:17:44;18.50;61.40
81935;DHT22;71405;47.674;-2.050;2023-10-08T05:20:16;18.50;61.40
81935;DHT22;71405;47.674;-2.050;2023-10-08T05:22:45;18.60;61.40
81935;DHT22;71405;47.674;-2.050;2023-10-08T05:25:21;18.50;61.40
81935;DHT22;71405;47.674;-2.050;2023-10-08T05:27:46;18.50;62.10
81935;DHT22;71405;47.674;-2.050;2023-10-08T05:30:18;18.50;61.80
81935;DHT22;71405;47.674;-2.050;2023-10-08T05:32:57;18.50;62.10
81935;DHT22;71405;47.674;-2.050;2023-10-08T05:35:46;18.50;61.40
81935;DHT22;71405;47.674;-2.050;2023-10-08T05:38:20;18.50;61.50
81935;DHT22;71405;47.674;-2.050;2023-10-08T05:40:56;18.50;61.40
81935;DHT22;71405;47.674;-2.050;2023-10-08T05:46:21;18.50;61.50
81935;DHT22;71405;47.674;-2.050;2023-10-08T05:48:55;18.50;62.20
81935;DHT22;71405;47.674;-2.050;2023-10-08T05:51:40;18.50;62.20
81935;DHT22;71405;47.674;-2.050;2023-10-08T05:54:23;18.50;61.60
81935;DHT22;71405;47.674;-2.050;2023-10-08T05:56:56;18.50;61.70
81935;DHT22;71405;47.674;-2.050;2023-10-08T05:59:43;18.50;61.40
81935;DHT22;71405;47.674;-2.050;2023-10-08T06:02:28;18.50;61.40
81935;DHT22;71405;47.674;-2.050;2023-10-08T06:05:14;18.50;61.50
81935;DHT22;71405;47.674;-2.050;2023-10-08T06:07:47;18.50;61.80
81935;DHT22;71405;47.674;-2.050;2023-10-08T06:10:16;18.50;61.10
81935;DHT22;71405;47.674;-2.050;2023-10-08T06:13:01;18.50;61.60
81935;DHT22;71405;47.674;-2.050;2023-10-08T06:15:40;18.50;62.50
81935;DHT22;71405;47.674;-2.050;2023-10-08T06:18:29;18.50;61.10
81935;DHT22;71405;47.674;-2.050;2023-10-08T06:20:56;18.50;61.00
81935;DHT22;71405;47.674;-2.050;2023-10-08T06:23:26;18.50;60.90
81935;DHT22;71405;47.674;-2.050;2023-10-08T06:25:54;18.50;61.00
81935;DHT22;71405;47.674;-2.050;2023-10-08T06:28:23;18.50;61.10
81935;DHT22;71405;47.674;-2.050;2023-10-08T06:30:55;18.50;61.10
81935;DHT22;71405;47.674;-2.050;2023-10-08T06:33:25;18.50;61.00
81935;DHT22;71405;47.674;-2.050;2023-10-08T06:35:56;18.50;61.00
81935;DHT22;71405;47.674;-2.050;2023-10-08T06:38:30;18.50;61.00
81935;DHT22;71405;47.674;-2.050;2023-10-08T06:41:03;18.50;61.00
81935;DHT22;71405;47.674;-2.050;2023-10-08T06:43:35;18.40;59.40
81935;DHT22;71405;47.674;-2.050;2023-10-08T06:46:05;18.40;59.50
81935;DHT22;71405;47.674;-2.050;2023-10-08T06:48:38;18.30;60.00
81935;DHT22;71405;47.674;-2.050;2023-10-08T06:51:08;18.40;60.80
81935;DHT22;71405;47.674;-2.050;2023-10-08T06:53:42;18.40;60.70
81935;DHT22;71405;47.674;-2.050;2023-10-08T06:56:09;18.40;60.50
81935;DHT22;71405;47.674;-2.050;2023-10-08T06:58:41;18.40;60.30
81935;DHT22;71405;47.674;-2.050;2023-10-08T07:01:16;18.40;60.50
81935;DHT22;71405;47.674;-2.050;2023-10-08T07:03:59;18.40;60.40
81935;DHT22;71405;47.674;-2.050;2023-10-08T07:06:32;18.40;60.40
81935;DHT22;71405;47.674;-2.050;2023-10-08T07:09:00;18.40;60.40
81935;DHT22;71405;47.674;-2.050;2023-10-08T07:11:30;18.40;60.30
81935;DHT22;71405;47.674;-2.050;2023-10-08T07:14:06;18.30;59.00
81935;DHT22;71405;47.674;-2.050;2023-10-08T07:16:36;18.20;59.10
81935;DHT22;71405;47.674;-2.050;2023-10-08T07:19:02;18.30;59.40
81935;DHT22;71405;47.674;-2.050;2023-10-08T07:21:30;18.30;60.10
81935;DHT22;71405;47.674;-2.050;2023-10-08T07:24:10;18.30;60.20
81935;DHT22;71405;47.674;-2.050;2023-10-08T07:26:41;18.30;60.30
81935;DHT22;71405;47.674;-2.050;2023-10-08T07:29:12;18.30;60.70
81935;DHT22;71405;47.674;-2.050;2023-10-08T07:31:39;18.30;59.10
81935;DHT22;71405;47.674;-2.050;2023-10-08T07:34:08;18.20;59.00
81935;DHT22;71405;47.674;-2.050;2023-10-08T07:37:03;18.00;58.60
81935;DHT22;71405;47.674;-2.050;2023-10-08T07:39:31;18.00;58.80
81935;DHT22;71405;47.674;-2.050;2023-10-08T07:41:58;18.00;59.10
81935;DHT22;71405;47.674;-2.050;2023-10-08T07:44:25;18.00;59.40
81935;DHT22;71405;47.674;-2.050;2023-10-08T07:46:54;18.10;59.20
81935;DHT22;71405;47.674;-2.050;2023-10-08T07:49:23;18.10;59.50
81935;DHT22;71405;47.674;-2.050;2023-10-08T07:51:51;18.10;59.50
81935;DHT22;71405;47.674;-2.050;2023-10-08T07:54:21;18.10;59.70
81935;DHT22;71405;47.674;-2.050;2023-10-08T07:56:48;18.10;59.50
81935;DHT22;71405;47.674;-2.050;2023-10-08T07:59:15;18.10;59.90
81935;DHT22;71405;47.674;-2.050;2023-10-08T08:01:42;18.10;59.90
81935;DHT22;71405;47.674;-2.050;2023-10-08T08:04:14;18.10;60.40
81935;DHT22;71405;47.674;-2.050;2023-10-08T08:06:52;18.10;60.70
81935;DHT22;71405;47.674;-2.050;2023-10-08T08:09:18;18.20;61.00
81935;DHT22;71405;47.674;-2.050;2023-10-08T08:11:49;18.10;60.90
81935;DHT22;71405;47.674;-2.050;2023-10-08T08:14:16;18.20;60.80
81935;DHT22;71405;47.674;-2.050;2023-10-08T08:16:50;18.20;61.50
81935;DHT22;71405;47.674;-2.050;2023-10-08T08:19:17;18.20;61.40
81935;DHT22;71405;47.674;-2.050;2023-10-08T08:21:49;18.20;60.80
81935;DHT22;71405;47.674;-2.050;2023-10-08T08:24:17;18.10;61.10
81935;DHT22;71405;47.674;-2.050;2023-10-08T08:26:57;17.90;62.10
81935;DHT22;71405;47.674;-2.050;2023-10-08T08:29:37;17.90;62.50
81935;DHT22;71405;47.674;-2.050;2023-10-08T08:32:14;17.90;62.20
81935;DHT22;71405;47.674;-2.050;2023-10-08T08:34:44;18.00;62.00
81935;DHT22;71405;47.674;-2.050;2023-10-08T08:37:13;18.10;61.90
81935;DHT22;71405;47.674;-2.050;2023-10-08T08:39:39;18.10;63.00
81935;DHT22;71405;47.674;-2.050;2023-10-08T08:42:07;18.10;62.70
81935;DHT22;71405;47.674;-2.050;2023-10-08T08:44:35;18.10;62.40
81935;DHT22;71405;47.674;-2.050;2023-10-08T08:47:05;18.10;62.60
81935;DHT22;71405;47.674;-2.050;2023-10-08T08:49:35;18.20;63.10
81935;DHT22;71405;47.674;-2.050;2023-10-08T08:52:04;18.20;63.00
81935;DHT22;71405;47.674;-2.050;2023-10-08T08:54:30;18.20;63.40
81935;DHT22;71405;47.674;-2.050;2023-10-08T08:56:57;18.20;63.00
81935;DHT22;71405;47.674;-2.050;2023-10-08T08:59:27;18.20;62.90
81935;DHT22;71405;47.674;-2.050;2023-10-08T09:01:59;18.20;63.30
81935;DHT22;71405;47.674;-2.050;2023-10-08T09:04:29;18.20;62.90
81935;DHT22;71405;47.674;-2.050;2023-10-08T09:06:56;18.30;63.30
81935;DHT22;71405;47.674;-2.050;2023-10-08T09:09:22;18.30;63.00
81935;DHT22;71405;47.674;-2.050;2023-10-08T09:11:49;18.30;63.00
81935;DHT22;71405;47.674;-2.050;2023-10-08T09:14:21;18.30;63.30
81935;DHT22;71405;47.674;-2.050;2023-10-08T09:16:47;18.30;63.20
81935;DHT22;71405;47.674;-2.050;2023-10-08T09:19:13;18.30;62.90
81935;DHT22;71405;47.674;-2.050;2023-10-08T09:21:59;18.30;63.50
81935;DHT22;71405;47.674;-2.050;2023-10-08T09:24:25;18.30;63.30
81935;DHT22;71405;47.674;-2.050;2023-10-08T09:26:52;18.30;63.10
81935;DHT22;71405;47.674;-2.050;2023-10-08T09:29:22;18.30;62.90
81935;DHT22;71405;47.674;-2.050;2023-10-08T09:31:56;18.30;63.30
81935;DHT22;71405;47.674;-2.050;2023-10-08T09:34:27;18.40;62.60
81935;DHT22;71405;47.674;-2.050;2023-10-08T09:36:53;18.40;62.90
81935;DHT22;71405;47.674;-2.050;2023-10-08T09:39:21;18.40;62.90
81935;DHT22;71405;47.674;-2.050;2023-10-08T09:41:54;18.30;62.80
81935;DHT22;71405;47.674;-2.050;2023-10-08T09:44:22;18.30;62.70
81935;DHT22;71405;47.674;-2.050;2023-10-08T09:47:02;18.30;63.00
81935;DHT22;71405;47.674;-2.050;2023-10-08T09:49:41;18.30;62.90
81935;DHT22;71405;47.674;-2.050;2023-10-08T09:52:16;18.30;63.40
81935;DHT22;71405;47.674;-2.050;2023-10-08T09:55:03;18.40;63.50
81935;DHT22;71405;47.674;-2.050;2023-10-08T09:57:36;18.40;63.50
81935;DHT22;71405;47.674;-2.050;2023-10-08T10:00:03;18.40;63.90
81935;DHT22;71405;47.674;-2.050;2023-10-08T10:02:30;18.40;64.00
81935;DHT22;71405;47.674;-2.050;2023-10-08T10:04:57;18.40;63.50
81935;DHT22;71405;47.674;-2.050;2023-10-08T10:07:26;18.40;64.30
81935;DHT22;71405;47.674;-2.050;2023-10-08T10:09:54;18.40;64.10
81935;DHT22;71405;47.674;-2.050;2023-10-08T10:12:25;18.40;64.20
81935;DHT22;71405;47.674;-2.050;2023-10-08T10:14:55;18.50;64.20
81935;DHT22;71405;47.674;-2.050;2023-10-08T10:17:22;18.50;64.40
81935;DHT22;71405;47.674;-2.050;2023-10-08T10:19:59;18.50;64.20
81935;DHT22;71405;47.674;-2.050;2023-10-08T10:22:33;18.50;65.10
81935;DHT22;71405;47.674;-2.050;2023-10-08T10:25:03;18.50;64.90
81935;DHT22;71405;47.674;-2.050;2023-10-08T10:30:21;18.50;64.30
81935;DHT22;71405;47.674;-2.050;2023-10-08T10:32:51;18.50;64.20
81935;DHT22;71405;47.674;-2.050;2023-10-08T10:35:17;18.60;64.20
81935;DHT22;71405;47.674;-2.050;2023-10-08T10:37:45;18.60;64.00
81935;DHT22;71405;47.674;-2.050;2023-10-08T10:40:23;18.60;64.00
81935;DHT22;71405;47.674;-2.050;2023-10-08T10:43:04;18.60;63.50
81935;DHT22;71405;47.674;-2.050;2023-10-08T10:45:32;18.60;64.10
81935;DHT22;71405;47.674;-2.050;2023-10-08T10:48:12;18.60;63.00
81935;DHT22;71405;47.674;-2.050;2023-10-08T10:50:45;18.60;62.60
81935;DHT22;71405;47.674;-2.050;2023-10-08T10:53:40;18.70;62.70
81935;DHT22;71405;47.674;-2.050;2023-10-08T10:56:36;18.60;62.70
81935;DHT22;71405;47.674;-2.050;2023-10-08T10:59:10;18.70;63.20
81935;DHT22;71405;47.674;-2.050;2023-10-08T11:01:48;18.70;62.10
81935;DHT22;71405;47.674;-2.050;2023-10-08T11:04:40;18.70;62.00
81935;DHT22;71405;47.674;-2.050;2023-10-08T11:07:20;18.80;62.90
81935;DHT22;71405;47.674;-2.050;2023-10-08T11:09:49;18.80;62.50
81935;DHT22;71405;47.674;-2.050;2023-10-08T11:12:17;18.80;62.40
81935;DHT22;71405;47.674;-2.050;2023-10-08T11:14:59;18.80;62.80
81935;DHT22;71405;47.674;-2.050;2023-10-08T11:17:28;18.80;62.80
81935;DHT22;71405;47.674;-2.050;2023-10-08T11:19:54;18.90;61.70
81935;DHT22;71405;47.674;-2.050;2023-10-08T11:22:20;18.90;62.70
81935;DHT22;71405;47.674;-2.050;2023-10-08T11:24:48;18.90;62.00
81935;DHT22;71405;47.674;-2.050;2023-10-08T11:27:16;18.90;61.70
81935;DHT22;71405;47.674;-2.050;2023-10-08T11:29:49;19.00;61.50
81935;DHT22;71405;47.674;-2.050;2023-10-08T11:32:24;19.00;61.70
81935;DHT22;71405;47.674;-2.050;2023-10-08T11:34:59;19.00;62.30
81935;DHT22;71405;47.674;-2.050;2023-10-08T11:37:30;19.10;62.30
81935;DHT22;71405;47.674;-2.050;2023-10-08T11:39:59;19.10;61.80
81935;DHT22;71405;47.674;-2.050;2023-10-08T11:42:28;19.20;62.20
81935;DHT22;71405;47.674;-2.050;2023-10-08T11:44:59;19.20;62.90
81935;DHT22;71405;47.674;-2.050;2023-10-08T11:47:28;19.30;62.80
81935;DHT22;71405;47.674;-2.050;2023-10-08T11:50:01;19.30;63.20
81935;DHT22;71405;47.674;-2.050;2023-10-08T11:52:37;19.40;63.20
81935;DHT22;71405;47.674;-2.050;2023-10-08T11:55:11;19.40;62.60
81935;DHT22;71405;47.674;-2.050;2023-10-08T11:57:47;19.50;64.00
81935;DHT22;71405;47.674;-2.050;2023-10-08T12:00:15;19.50;63.30
81935;DHT22;71405;47.674;-2.050;2023-10-08T12:02:48;19.50;62.60
81935;DHT22;71405;47.674;-2.050;2023-10-08T12:05:15;19.60;62.80
81935;DHT22;71405;47.674;-2.050;2023-10-08T12:07:50;19.60;62.60
81935;DHT22;71405;47.674;-2.050;2023-10-08T12:10:23;19.60;62.20
81935;DHT22;71405;47.674;-2.050;2023-10-08T12:12:53;19.70;61.70
81935;DHT22;71405;47.674;-2.050;2023-10-08T12:15:21;19.70;61.60
81935;DHT22;71405;47.674;-2.050;2023-10-08T12:17:50;19.70;61.60
81935;DHT22;71405;47.674;-2.050;2023-10-08T12:20:38;19.70;62.40
81935;DHT22;71405;47.674;-2.050;2023-10-08T12:23:05;19.70;62.20
81935;DHT22;71405;47.674;-2.050;2023-10-08T12:25:34;19.70;62.00
81935;DHT22;71405;47.674;-2.050;2023-10-08T12:28:01;19.70;61.50
81935;DHT22;71405;47.674;-2.050;2023-10-08T12:30:33;19.70;61.40
81935;DHT22;71405;47.674;-2.050;2023-10-08T12:33:07;19.80;61.10
81935;DHT22;71405;47.674;-2.050;2023-10-08T12:35:35;19.80;62.00
81935;DHT22;71405;47.674;-2.050;2023-10-08T12:38:02;19.80;61.00
81935;DHT22;71405;47.674;-2.050;2023-10-08T12:40:30;19.80;61.10
81935;DHT22;71405;47.674;-2.050;2023-10-08T12:43:08;19.90;60.60
81935;DHT22;71405;47.674;-2.050;2023-10-08T12:45:34;19.90;60.80
81935;DHT22;71405;47.674;-2.050;2023-10-08T12:48:03;19.90;61.10
81935;DHT22;71405;47.674;-2.050;2023-10-08T12:50:30;19.90;61.60
81935;DHT22;71405;47.674;-2.050;2023-10-08T12:53:10;19.90;61.40
81935;DHT22;71405;47.674;-2.050;2023-10-08T12:55:40;20.00;61.40
81935;DHT22;71405;47.674;-2.050;2023-10-08T12:58:08;20.00;61.30
81935;DHT22;71405;47.674;-2.050;2023-10-08T13:00:39;20.00;60.90
81935;DHT22;71405;47.674;-2.050;2023-10-08T13:03:08;20.00;60.50
81935;DHT22;71405;47.674;-2.050;2023-10-08T13:05:56;20.00;61.00
81935;DHT22;71405;47.674;-2.050;2023-10-08T13:08:32;20.00;61.00
81935;DHT22;71405;47.674;-2.050;2023-10-08T13:10:59;20.00;61.40
81935;DHT22;71405;47.674;-2.050;2023-10-08T13:13:33;20.00;61.10
81935;DHT22;71405;47.674;-2.050;2023-10-08T13:16:00;20.00;60.60
81935;DHT22;71405;47.674;-2.050;2023-10-08T13:18:29;20.00;61.30
81935;DHT22;71405;47.674;-2.050;2023-10-08T13:20:55;20.10;60.60
81935;DHT22;71405;47.674;-2.050;2023-10-08T13:23:20;20.10;60.30
81935;DHT22;71405;47.674;-2.050;2023-10-08T13:25:52;20.10;60.20
81935;DHT22;71405;47.674;-2.050;2023-10-08T13:28:23;20.10;60.20
81935;DHT22;71405;47.674;-2.050;2023-10-08T13:30:52;20.10;60.10
81935;DHT22;71405;47.674;-2.050;2023-10-08T13:33:19;20.20;60.00
81935;DHT22;71405;47.674;-2.050;2023-10-08T13:35:45;20.20;60.90
81935;DHT22;71405;47.674;-2.050;2023-10-08T13:38:11;20.20;60.90
81935;DHT22;71405;47.674;-2.050;2023-10-08T13:40:39;20.20;60.50
81935;DHT22;71405;47.674;-2.050;2023-10-08T13:43:09;20.30;61.10
81935;DHT22;71405;47.674;-2.050;2023-10-08T13:45:37;20.30;60.40
81935;DHT22;71405;47.674;-2.050;2023-10-08T13:48:05;20.30;60.30
81935;DHT22;71405;47.674;-2.050;2023-10-08T13:50:31;20.30;60.30
81935;DHT22;71405;47.674;-2.050;2023-10-08T13:52:57;20.30;60.40
81935;DHT22;71405;47.674;-2.050;2023-10-08T13:55:24;20.30;60.30
81935;DHT22;71405;47.674;-2.050;2023-10-08T13:57:53;20.40;60.90
81935;DHT22;71405;47.674;-2.050;2023-10-08T14:00:19;20.40;60.40
81935;DHT22;71405;47.674;-2.050;2023-10-08T14:02:51;20.40;61.30
81935;DHT22;71405;47.674;-2.050;2023-10-08T14:05:19;20.40;61.30
81935;DHT22;71405;47.674;-2.050;2023-10-08T14:07:50;20.40;61.60
81935;DHT22;71405;47.674;-2.050;2023-10-08T14:10:18;20.50;60.80
81935;DHT22;71405;47.674;-2.050;2023-10-08T14:12:47;20.50;61.30
81935;DHT22;71405;47.674;-2.050;2023-10-08T14:15:17;20.50;61.20
81935;DHT22;71405;47.674;-2.050;2023-10-08T14:17:46;20.50;60.70
81935;DHT22;71405;47.674;-2.050;2023-10-08T14:20:19;20.50;61.40
81935;DHT22;71405;47.674;-2.050;2023-10-08T14:22:48;20.60;60.40
81935;DHT22;71405;47.674;-2.050;2023-10-08T14:25:26;20.60;60.30
81935;DHT22;71405;47.674;-2.050;2023-10-08T14:27:53;20.60;59.60
81935;DHT22;71405;47.674;-2.050;2023-10-08T14:30:19;20.60;60.20
81935;DHT22;71405;47.674;-2.050;2023-10-08T14:32:49;20.50;60.00
81935;DHT22;71405;47.674;-2.050;2023-10-08T14:35:15;20.50;59.90
81935;DHT22;71405;47.674;-2.050;2023-10-08T14:38:00;20.40;60.30
81935;DHT22;71405;47.674;-2.050;2023-10-08T14:40:46;20.40;60.00
81935;DHT22;71405;47.674;-2.050;2023-10-08T14:43:30;20.40;59.90
81935;DHT22;71405;47.674;-2.050;2023-10-08T14:46:00;20.30;60.10
81935;DHT22;71405;47.674;-2.050;2023-10-08T14:48:31;20.30;60.10
81935;DHT22;71405;47.674;-2.050;2023-10-08T14:51:01;20.30;60.50
81935;DHT22;71405;47.674;-2.050;2023-10-08T14:53:28;20.30;60.40
81935;DHT22;71405;47.674;-2.050;2023-10-08T14:55:56;20.30;60.30
81935;DHT22;71405;47.674;-2.050;2023-10-08T14:58:23;20.30;60.30
81935;DHT22;71405;47.674;-2.050;2023-10-08T15:00:48;20.30;60.40
81935;DHT22;71405;47.674;-2.050;2023-10-08T15:03:14;20.30;60.40
81935;DHT22;71405;47.674;-2.050;2023-10-08T15:05:40;20.30;60.50
81935;DHT22;71405;47.674;-2.050;2023-10-08T15:08:06;20.30;60.50
81935;DHT22;71405;47.674;-2.050;2023-10-08T15:10:40;20.20;60.60
81935;DHT22;71405;47.674;-2.050;2023-10-08T15:13:06;20.20;60.70
81935;DHT22;71405;47.674;-2.050;2023-10-08T15:15:32;20.20;60.70
81935;DHT22;71405;47.674;-2.050;2023-10-08T15:18:00;20.20;60.70
81935;DHT22;71405;47.674;-2.050;2023-10-08T15:20:31;20.20;60.60
81935;DHT22;71405;47.674;-2.050;2023-10-08T15:22:59;20.20;60.70
81935;DHT22;71405;47.674;-2.050;2023-10-08T15:25:25;20.20;60.70
81935;DHT22;71405;47.674;-2.050;2023-10-08T15:27:50;20.20;60.90
81935;DHT22;71405;47.674;-2.050;2023-10-08T15:30:18;20.20;60.90
81935;DHT22;71405;47.674;-2.050;2023-10-08T15:32:48;20.20;60.80
81935;DHT22;71405;47.674;-2.050;2023-10-08T15:35:17;20.20;61.00
81935;DHT22;71405;47.674;-2.050;2023-10-08T15:37:49;20.20;61.00
81935;DHT22;71405;47.674;-2.050;2023-10-08T15:40:15;20.20;61.10
81935;DHT22;71405;47.674;-2.050;2023-10-08T15:42:48;20.20;61.10
81935;DHT22;71405;47.674;-2.050;2023-10-08T15:45:17;20.20;61.00
81935;DHT22;71405;47.674;-2.050;2023-10-08T15:47:43;20.20;61.10